Time;durP1;ratioP1;P1;durP2;ratioP2;P2;SDS_P1;SDS_P2;PMS_P1;PMS_P2;Temp;Humidity;BMP_temperature;BMP_pressure;BME280_temperature;BME280_humidity;BME280_pressure;Samples;Min_cycle;Max_cycle;Signal;HPM_P1;HPM_P2
2023/03/21 00:01:55;;;;;;;18.90;13.40;;;;;;;8.82;79.87;98972.47;5094545;28;20439;-51
2023/03/21 00:04:25;;;;;;;14.88;7.85;;;;;;;8.87;80.76;98970.13;5094703;28;20024;-51
2023/03/21 00:06:51;;;;;;;8.38;7.13;;;;;;;8.98;79.97;98971.47;5076360;28;20031;-51
2023/03/21 00:09:17;;;;;;;10.00;6.22;;;;;;;8.93;79.69;98971.19;5094735;28;20393;-51
2023/03/21 00:11:43;;;;;;;11.70;6.88;;;;;;;8.77;79.54;98974.81;5076213;28;20556;-51
2023/03/21 00:14:13;;;;;;;13.13;6.85;;;;;;;8.82;80.38;98977.72;5076316;28;20054;-51
2023/03/21 00:16:39;;;;;;;10.55;7.20;;;;;;;8.77;79.21;98967.81;5094297;28;20091;-51
2023/03/21 00:19:06;;;;;;;7.97;6.60;;;;;;;8.74;80.09;98976.00;5076072;28;20044;-51
2023/03/21 00:21:37;;;;;;;14.32;7.10;;;;;;;8.72;80.30;98964.09;5076175;28;20027;-51
2023/03/21 00:24:05;;;;;;;8.68;6.63;;;;;;;8.80;81.17;98961.38;5094238;28;20123;-51
2023/03/21 00:26:31;;;;;;;9.20;6.80;;;;;;;8.81;78.83;98973.47;5093973;28;20074;-51
2023/03/21 00:28:57;;;;;;;25.65;7.78;;;;;;;8.75;79.15;98971.56;5075933;28;20025;-52
2023/03/21 00:31:23;;;;;;;14.93;5.97;;;;;;;8.83;79.80;98962.81;5094062;28;20031;-51
2023/03/21 00:33:49;;;;;;;9.65;6.95;;;;;;;8.68;78.96;98958.41;5075909;28;20043;-51
2023/03/21 00:36:15;;;;;;;8.35;7.07;;;;;;;8.51;79.98;98952.56;5075762;28;20481;-51
2023/03/21 00:38:41;;;;;;;11.70;7.03;;;;;;;8.35;79.38;98963.13;5094020;28;20028;-52
2023/03/21 00:41:08;;;;;;;13.52;7.78;;;;;;;8.37;81.63;98955.91;5094014;28;20485;-51
2023/03/21 00:43:35;;;;;;;13.73;7.15;;;;;;;8.31;81.20;98961.88;5093864;28;20107;-51
2023/03/21 00:46:01;;;;;;;14.52;7.32;;;;;;;8.27;81.00;98958.00;5093805;28;20493;-51
2023/03/21 00:48:27;;;;;;;9.73;7.05;;;;;;;8.12;81.44;98956.16;5075885;28;20107;-51
2023/03/21 00:50:56;;;;;;;14.02;7.15;;;;;;;8.00;81.17;98949.75;5093442;28;20128;-51
2023/03/21 00:53:22;;;;;;;10.82;6.75;;;;;;;7.86;82.03;98945.31;5093422;28;20025;-51
2023/03/21 00:55:48;;;;;;;22.98;13.07;;;;;;;7.79;82.19;98953.03;5058740;28;20439;-51
2023/03/21 00:58:15;;;;;;;39.20;29.60;;;;;;;7.77;82.26;98942.75;5093506;28;20027;-51
2023/03/21 01:00:41;;;;;;;24.42;18.85;;;;;;;7.79;81.88;98947.81;5093419;28;20016;-51
2023/03/21 01:03:10;;;;;;;16.45;11.90;;;;;;;7.68;82.81;98946.41;5093375;28;20138;-51
2023/03/21 01:08:23;;;;;;;38.90;21.33;;;;;;;7.61;83.11;98942.88;5093650;28;20055;-51
2023/03/21 01:10:51;;;;;;;22.50;16.48;;;;;;;7.64;83.30;98944.34;5093313;28;20023;-51
2023/03/21 01:13:19;;;;;;;12.13;8.43;;;;;;;7.73;82.95;98936.25;5075028;28;20052;-52
2023/03/21 01:15:48;;;;;;;19.05;9.52;;;;;;;7.79;82.21;98938.16;5093427;28;20020;-51
2023/03/21 01:18:15;;;;;;;16.30;8.52;;;;;;;7.95;82.96;98932.00;5093104;28;20020;-51
2023/03/21 01:20:43;;;;;;;16.27;10.63;;;;;;;7.94;81.71;98929.56;5093069;28;20016;-51
2023/03/21 01:23:10;;;;;;;11.32;7.65;;;;;;;7.80;81.46;98918.88;5074881;28;20028;-51
2023/03/21 01:25:36;;;;;;;10.02;7.45;;;;;;;7.81;82.03;98924.94;5093061;28;20024;-51
2023/03/21 01:28:02;;;;;;;8.70;6.53;;;;;;;7.75;83.01;98926.44;5074756;28;20039;-51
2023/03/21 01:30:28;;;;;;;13.73;7.13;;;;;;;7.71;82.10;98922.56;5074827;28;20035;-51
2023/03/21 01:32:54;;;;;;;9.88;7.20;;;;;;;7.79;82.37;98921.69;5092866;28;20028;-51
2023/03/21 01:35:20;;;;;;;9.20;6.30;;;;;;;7.85;82.40;98913.16;5074876;28;20031;-51
2023/03/21 01:37:47;;;;;;;10.65;7.80;;;;;;;7.97;82.45;98918.75;5092900;28;20028;-51
2023/03/21 01:40:20;;;;;;;12.20;8.43;;;;;;;8.09;82.29;98911.28;5092725;28;20020;-51
2023/03/21 01:42:45;;;;;;;14.15;7.43;;;;;;;8.26;81.45;98906.72;5092788;28;20038;-52
2023/03/21 01:45:49;;;;;;;12.52;7.45;;;;;;;8.13;78.57;98907.31;5057845;28;20424;-51
2023/03/21 01:48:15;;;;;;;11.10;6.45;;;;;;;7.92;80.35;98903.59;5074440;28;20024;-51
2023/03/21 01:50:42;;;;;;;12.52;6.93;;;;;;;7.90;81.90;98896.94;5057504;28;20051;-51
2023/03/21 01:53:09;;;;;;;8.77;6.65;;;;;;;7.77;81.24;98893.13;5074677;28;20441;-51
2023/03/21 01:55:36;;;;;;;7.00;6.18;;;;;;;7.67;83.12;98896.97;5092524;28;20027;-51
2023/03/21 01:58:04;;;;;;;16.30;10.82;;;;;;;7.53;82.78;98901.97;5092390;28;20043;-50
2023/03/21 02:00:30;;;;;;;11.07;6.82;;;;;;;7.34;82.49;98908.47;5074170;28;20122;-51
2023/03/21 02:02:58;;;;;;;10.82;7.13;;;;;;;7.18;83.81;98908.56;5092338;28;20020;-51
2023/03/21 02:06:01;;;;;;;9.65;7.82;;;;;;;7.11;83.99;98899.81;5057178;28;20378;-51
2023/03/21 02:08:29;;;;;;;14.02;7.78;;;;;;;7.14;85.05;98897.69;5067070;28;20043;-51
2023/03/21 02:10:56;;;;;;;12.13;7.38;;;;;;;7.08;84.53;98903.56;5074078;28;20023;-51
2023/03/21 02:13:22;;;;;;;9.77;6.85;;;;;;;7.12;85.02;98899.66;5092251;28;20032;-51
2023/03/21 02:16:29;;;;;;;13.00;7.43;;;;;;;7.22;83.37;98893.38;5074023;28;20538;-51
2023/03/21 02:19:18;;;;;;;;;;;;;;;7.28;81.08;98892.69;5064723;28;20452;-51
2023/03/21 02:21:47;;;;;;;7.85;6.60;;;;;;;7.16;83.04;98894.88;5092227;28;20452;-51
2023/03/21 02:24:15;;;;;;;9.35;6.13;;;;;;;7.09;84.57;98883.53;5073930;28;20044;-51
2023/03/21 02:27:03;;;;;;;10.55;6.50;;;;;;;7.12;86.00;98889.22;5092091;28;20058;-51
2023/03/21 02:30:10;;;;;;;10.52;6.15;;;;;;;7.14;87.33;98878.59;5073998;28;20063;-51
2023/03/21 02:33:00;;;;;;;12.57;5.68;;;;;;;7.11;88.47;98881.56;5009884;28;20040;-51
2023/03/21 02:35:45;;;;;;;8.05;5.20;;;;;;;7.04;88.20;98868.38;5009935;28;20061;-51
2023/03/21 02:38:20;;;;;;;12.65;8.88;;;;;;;6.96;88.13;98878.84;5009891;28;20022;-51
2023/03/21 02:41:33;;;;;;;9.45;5.43;;;;;;;6.90;87.49;98874.31;5009890;28;20069;-51
2023/03/21 02:44:18;;;;;;;12.30;5.32;;;;;;;6.93;88.42;98874.78;4996929;28;20038;-51
2023/03/21 02:46:54;;;;;;;7.28;4.60;;;;;;;7.11;87.90;98869.31;5009782;28;20484;-51
2023/03/21 02:49:37;;;;;;;11.85;8.30;;;;;;;7.12;86.08;98863.13;5009544;28;20145;-51
2023/03/21 02:52:07;;;;;;;14.73;10.63;;;;;;;7.03;87.23;98868.56;5009666;28;20574;-51
2023/03/21 02:54:33;;;;;;;12.23;6.53;;;;;;;7.03;88.31;98868.56;5009764;28;20041;-51
2023/03/21 02:57:03;;;;;;;10.32;6.60;;;;;;;7.15;88.75;98872.38;4993092;28;20037;-51
2023/03/21 02:59:30;;;;;;;9.70;6.13;;;;;;;7.23;87.56;98864.50;5009721;28;20036;-51
2023/03/21 03:01:57;;;;;;;13.75;6.25;;;;;;;7.23;87.68;98868.91;5009558;28;20033;-51
2023/03/21 03:04:26;;;;;;;12.68;6.03;;;;;;;7.15;87.54;98872.38;5009465;28;20026;-51
2023/03/21 03:06:57;;;;;;;8.20;5.75;;;;;;;7.14;89.04;98868.13;5009592;28;20075;-50
2023/03/21 03:09:37;;;;;;;8.05;6.82;;;;;;;7.12;89.31;98870.13;5057784;28;20051;-51
2023/03/21 03:12:26;;;;;;;11.27;6.13;;;;;;;7.08;89.67;98879.28;5091609;28;20028;-51
2023/03/21 03:14:59;;;;;;;9.98;5.35;;;;;;;6.95;90.42;98874.63;5073475;28;20040;-50
2023/03/21 03:18:13;;;;;;;13.13;5.88;;;;;;;6.95;90.92;98870.22;5094313;28;20115;-51
2023/03/21 03:21:21;;;;;;;7.53;5.10;;;;;;;7.02;91.53;98866.91;5013148;28;20037;-51
2023/03/21 03:23:56;;;;;;;8.88;5.10;;;;;;;7.05;90.32;98864.78;4935669;29;20200;-51
2023/03/21 03:27:09;;;;;;;10.38;5.38;;;;;;;6.98;89.24;98864.66;4935731;29;20051;-51
2023/03/21 03:29:39;;;;;;;7.63;4.88;;;;;;;6.94;89.74;98863.38;4863391;29;20048;-51
2023/03/21 03:32:14;;;;;;;7.05;5.13;;;;;;;7.05;90.72;98861.38;4878937;29;20049;-51
2023/03/21 03:34:48;;;;;;;11.75;6.57;;;;;;;7.16;91.22;98868.78;4863492;29;20057;-51
2023/03/21 03:37:19;;;;;;;9.88;5.68;;;;;;;7.19;91.31;98864.03;4878809;29;20037;-51
2023/03/21 03:39:54;;;;;;;10.85;5.40;;;;;;;7.13;89.58;98862.13;4878929;29;20159;-51
2023/03/21 03:42:29;;;;;;;8.63;4.40;;;;;;;7.14;90.60;98865.53;4863265;29;20032;-51
2023/03/21 03:44:55;;;;;;;7.95;4.47;;;;;;;7.17;88.64;98862.59;4878796;29;20037;-51
2023/03/21 03:47:36;;;;;;;8.07;5.22;;;;;;;7.19;86.07;98852.78;4878748;29;20121;-51
2023/03/21 03:50:29;;;;;;;8.80;5.45;;;;;;;7.06;83.57;98855.16;4878627;29;20097;-51
2023/03/21 03:53:05;;;;;;;8.18;5.47;;;;;;;7.07;85.17;98860.19;4919290;29;20032;-51
2023/03/21 03:55:33;;;;;;;8.48;5.55;;;;;;;7.12;84.95;98857.91;4935312;29;20036;-51
2023/03/21 03:58:00;;;;;;;9.38;5.40;;;;;;;7.08;84.63;98867.03;4935130;29;20038;-51
2023/03/21 04:00:31;;;;;;;8.25;5.25;;;;;;;7.08;84.72;98861.81;5008188;28;20133;-51
2023/03/21 04:02:58;;;;;;;8.45;5.50;;;;;;;6.99;84.91;98853.22;5012629;28;20053;-51
2023/03/21 04:05:25;;;;;;;7.65;5.07;;;;;;;7.00;84.36;98859.25;5070457;28;20513;-51
2023/03/21 04:07:51;;;;;;;6.88;5.03;;;;;;;7.07;84.43;98859.41;5094699;28;20023;-51
2023/03/21 04:10:17;;;;;;;18.67;6.35;;;;;;;7.19;85.61;98863.22;5076314;28;20549;-51
2023/03/21 04:12:43;;;;;;;10.00;4.63;;;;;;;7.14;83.58;98863.75;5094501;28;20413;-51
2023/03/21 04:15:09;;;;;;;10.63;5.57;;;;;;;7.04;83.86;98862.34;5076263;28;20020;-51
2023/03/21 04:17:35;;;;;;;8.02;4.80;;;;;;;6.98;84.10;98859.44;5076239;28;20020;-51
2023/03/21 04:20:01;;;;;;;9.93;4.80;;;;;;;6.84;83.38;98861.97;5094512;28;20081;-51
2023/03/21 04:22:26;;;;;;;8.05;5.35;;;;;;;6.73;83.44;98868.41;5076016;28;20519;-51
2023/03/21 04:24:52;;;;;;;7.63;5.20;;;;;;;6.59;83.60;98875.13;5094223;28;20066;-51
2023/03/21 04:27:18;;;;;;;9.13;4.93;;;;;;;6.56;84.23;98873.69;5075923;28;20141;-51
2023/03/21 04:29:43;;;;;;;9.90;6.20;;;;;;;6.55;83.77;98868.63;5093469;28;20031;-51
2023/03/21 04:32:15;;;;;;;6.35;5.55;;;;;;;6.52;83.38;98869.78;5075885;28;20032;-51
2023/03/21 04:34:42;;;;;;;7.75;5.63;;;;;;;6.52;84.93;98864.59;5094058;28;20374;-51
2023/03/21 04:37:10;;;;;;;9.45;6.00;;;;;;;6.42;84.19;98877.00;5094008;28;20020;-51
2023/03/21 04:39:37;;;;;;;9.60;6.15;;;;;;;6.47;85.21;98873.88;5094161;28;20024;-51
2023/03/21 04:42:04;;;;;;;11.00;6.07;;;;;;;6.59;85.77;98873.34;5093767;28;20053;-51
2023/03/21 04:44:29;;;;;;;11.43;6.57;;;;;;;6.69;85.13;98872.31;5075689;28;20580;-51
2023/03/21 04:46:55;;;;;;;6.65;5.82;;;;;;;6.63;84.32;98873.00;5093704;28;20012;-51
2023/03/21 04:49:21;;;;;;;12.85;5.72;;;;;;;6.61;84.65;98870.56;5075409;28;20062;-51
2023/03/21 04:51:46;;;;;;;11.27;5.97;;;;;;;6.59;84.16;98870.72;5093731;28;20032;-51
2023/03/21 04:54:12;;;;;;;11.30;7.63;;;;;;;6.62;84.14;98864.38;5075526;28;20029;-51
2023/03/21 04:56:38;;;;;;;11.98;7.57;;;;;;;6.83;84.05;98865.56;5093648;28;20059;-51
2023/03/21 04:59:09;;;;;;;24.90;20.98;;;;;;;6.89;84.07;98875.31;5093533;28;20024;-51
2023/03/21 05:01:35;;;;;;;15.90;9.63;;;;;;;6.94;83.70;98866.00;5075207;28;20451;-51
2023/03/21 05:04:02;;;;;;;15.13;11.52;;;;;;;6.95;84.51;98866.81;5093408;28;20023;-51
2023/03/21 05:06:28;;;;;;;15.68;6.80;;;;;;;6.94;84.03;98866.00;5058771;28;20031;-51
2023/03/21 05:08:58;;;;;;;11.40;5.97;;;;;;;6.90;82.75;98863.88;5093321;28;20489;-51
2023/03/21 05:11:29;;;;;;;7.93;5.45;;;;;;;6.84;82.80;98862.81;5093209;28;20073;-51
2023/03/21 05:13:55;;;;;;;11.48;5.45;;;;;;;6.87;83.60;98870.28;5093274;28;20020;-51
2023/03/21 05:16:25;;;;;;;10.07;5.22;;;;;;;6.76;82.31;98874.09;5093233;28;20043;-52
2023/03/21 05:18:53;;;;;;;12.95;6.18;;;;;;;6.64;83.12;98880.66;5074978;28;20028;-51
2023/03/21 05:21:22;;;;;;;21.30;6.63;;;;;;;6.55;83.68;98879.88;5093252;28;20028;-51
2023/03/21 05:23:54;;;;;;;9.32;5.53;;;;;;;6.46;83.22;98882.69;5093087;28;20016;-51
2023/03/21 05:26:21;;;;;;;10.50;5.63;;;;;;;6.37;85.69;98879.28;5093100;28;20055;-51
2023/03/21 05:28:48;;;;;;;12.05;5.22;;;;;;;6.28;84.48;98883.72;5093055;28;20024;-51
2023/03/21 05:31:15;;;;;;;10.43;4.90;;;;;;;6.29;86.44;98874.09;5092864;28;20028;-51
2023/03/21 05:33:44;;;;;;;11.73;5.63;;;;;;;6.33;86.77;98872.78;5092826;28;20091;-51
2023/03/21 05:36:11;;;;;;;7.60;5.05;;;;;;;6.44;86.59;98871.59;5074598;28;20090;-51
2023/03/21 05:38:44;;;;;;;15.73;5.75;;;;;;;6.48;84.99;98871.13;5092903;28;20428;-50
2023/03/21 05:41:14;;;;;;;12.70;6.10;;;;;;;6.47;85.04;98873.88;5091719;28;20028;-51
2023/03/21 05:43:40;;;;;;;9.38;5.60;;;;;;;6.47;84.76;98869.47;5092699;28;20020;-51
2023/03/21 05:46:06;;;;;;;7.28;5.35;;;;;;;6.66;84.50;98865.66;5074385;28;20058;-51
2023/03/21 05:48:33;;;;;;;6.55;4.90;;;;;;;6.78;84.56;98864.28;5074458;28;20118;-51
2023/03/21 05:51:00;;;;;;;14.55;5.75;;;;;;;6.91;84.04;98866.31;5092225;28;20059;-51
2023/03/21 05:53:26;;;;;;;10.50;6.15;;;;;;;7.03;83.23;98861.53;5092530;28;20032;-51
2023/03/21 05:55:52;;;;;;;7.68;5.45;;;;;;;7.07;83.29;98872.44;5092511;28;20028;-51
2023/03/21 05:58:17;;;;;;;10.20;6.63;;;;;;;7.03;82.04;98871.97;5074359;28;20027;-51
2023/03/21 06:00:43;;;;;;;9.98;6.25;;;;;;;6.89;81.59;98876.13;5092346;28;20124;-51
2023/03/21 06:03:09;;;;;;;7.72;5.53;;;;;;;6.69;82.23;98872.31;5074021;28;20028;-51
2023/03/21 06:05:35;;;;;;;11.25;6.25;;;;;;;6.66;83.16;98875.25;5074171;28;20052;-51
2023/03/21 06:08:00;;;;;;;14.88;6.00;;;;;;;6.75;83.25;98866.44;5074140;28;20401;-51
2023/03/21 06:10:26;;;;;;;14.13;6.07;;;;;;;6.79;83.16;98872.94;5074163;28;20031;-51
2023/03/21 06:12:52;;;;;;;14.40;6.43;;;;;;;6.86;82.84;98875.66;5092193;28;20498;-51
2023/03/21 06:15:20;;;;;;;22.30;8.13;;;;;;;6.96;82.39;98879.69;5073988;28;20016;-51
2023/03/21 06:17:46;;;;;;;18.58;8.05;;;;;;;7.03;82.15;98876.38;5092192;28;20485;-51
2023/03/21 06:20:12;;;;;;;11.75;7.43;;;;;;;7.14;81.90;98878.59;5092037;28;20032;-51
2023/03/21 06:22:38;;;;;;;27.15;7.03;;;;;;;7.36;84.20;98883.00;5092276;28;20035;-51
2023/03/21 06:25:06;;;;;;;13.57;6.00;;;;;;;7.80;84.11;98878.88;5092047;28;20028;-50
2023/03/21 06:27:32;;;;;;;10.43;5.80;;;;;;;8.10;81.54;98869.28;5091981;28;20111;-50
2023/03/21 06:29:58;;;;;;;11.38;5.93;;;;;;;8.34;78.68;98870.00;5092042;28;20055;-51
2023/03/21 06:32:24;;;;;;;9.20;5.57;;;;;;;8.46;77.97;98881.66;5091928;28;20028;-51
2023/03/21 06:34:50;;;;;;;7.90;5.75;;;;;;;8.47;78.09;98879.84;5091989;28;20024;-51
2023/03/21 06:37:16;;;;;;;13.30;5.80;;;;;;;8.56;78.96;98884.81;5091836;28;20024;-51
2023/03/21 06:39:41;;;;;;;8.65;6.00;;;;;;;9.27;81.71;98886.78;5091983;28;20044;-50
2023/03/21 06:42:07;;;;;;;24.25;6.45;;;;;;;10.83;81.91;98884.03;5073623;28;20397;-51
2023/03/21 06:44:33;;;;;;;17.88;5.63;;;;;;;12.10;80.64;98879.69;5091799;28;20032;-51
2023/03/21 06:46:58;;;;;;;28.25;6.55;;;;;;;12.87;78.67;98885.13;5091841;28;20024;-51
2023/03/21 06:49:25;;;;;;;13.63;6.03;;;;;;;13.29;73.40;98874.16;5073388;28;20089;-52
2023/03/21 06:51:51;;;;;;;16.70;5.95;;;;;;;13.44;74.43;98881.75;5093649;28;20435;-52
2023/03/21 06:54:17;;;;;;;9.13;5.30;;;;;;;13.74;74.12;98885.41;5095981;28;20028;-51
2023/03/21 06:56:43;;;;;;;11.05;5.15;;;;;;;14.35;71.81;98885.63;5095796;28;20052;-52
2023/03/21 06:59:09;;;;;;;9.55;5.20;;;;;;;14.93;69.68;98879.88;5077625;28;20028;-49
2023/03/21 07:01:35;;;;;;;9.80;5.13;;;;;;;15.22;67.81;98876.66;5095753;28;20378;-49
2023/03/21 07:04:01;;;;;;;12.13;4.63;;;;;;;15.38;63.17;98868.06;5077522;28;20028;-49
2023/03/21 07:06:27;;;;;;;15.23;5.15;;;;;;;15.26;61.75;98875.19;5095674;28;20020;-49
2023/03/21 07:08:54;;;;;;;7.78;4.68;;;;;;;15.06;64.62;98880.75;5077538;28;20044;-49
2023/03/21 07:11:21;;;;;;;9.60;4.38;;;;;;;15.20;65.54;98876.06;5095637;28;20016;-49
2023/03/21 07:13:47;;;;;;;14.88;5.38;;;;;;;15.41;64.66;98872.09;5077340;28;20024;-49
2023/03/21 07:16:16;;;;;;;11.15;5.15;;;;;;;15.34;64.57;98869.56;5095749;28;20035;-48
2023/03/21 07:18:42;;;;;;;12.82;5.47;;;;;;;15.03;65.35;98875.88;5077283;28;20099;-48
2023/03/21 07:21:08;;;;;;;11.32;5.50;;;;;;;15.02;65.27;98874.28;5077303;28;20103;-48
2023/03/21 07:23:34;;;;;;;12.27;5.18;;;;;;;15.23;64.61;98873.78;5095714;28;20374;-49
2023/03/21 07:26:00;;;;;;;9.20;4.47;;;;;;;15.45;63.55;98875.91;5077115;28;20023;-49
2023/03/21 07:28:26;;;;;;;15.98;5.32;;;;;;;15.83;65.71;98880.81;5060477;28;20111;-49
2023/03/21 07:30:55;;;;;;;8.45;5.22;;;;;;;16.62;64.07;98883.03;5060309;28;20085;-49
2023/03/21 07:33:22;;;;;;;10.27;5.47;;;;;;;17.11;63.18;98882.66;5095227;28;20028;-49
2023/03/21 07:35:49;;;;;;;9.80;5.15;;;;;;;17.58;62.64;98879.72;5095105;28;20024;-49
2023/03/21 07:38:16;;;;;;;7.95;4.57;;;;;;;17.95;63.74;98877.41;5076944;28;20027;-49
2023/03/21 07:40:43;;;;;;;21.05;5.18;;;;;;;18.58;63.41;98876.38;5094916;28;20016;-49
2023/03/21 07:43:08;;;;;;;12.10;4.90;;;;;;;19.10;63.11;98874.03;5095010;28;20517;-49
2023/03/21 07:45:34;;;;;;;15.10;5.03;;;;;;;19.53;59.93;98874.13;5094936;28;20020;-49
2023/03/21 07:48:00;;;;;;;14.63;5.40;;;;;;;19.70;58.25;98866.81;5095088;28;20024;-48
2023/03/21 07:50:26;;;;;;;17.98;5.80;;;;;;;19.61;57.43;98870.22;5094757;28;20051;-47
2023/03/21 07:52:52;;;;;;;9.80;4.85;;;;;;;19.89;57.53;98874.44;5094795;28;20230;-46
2023/03/21 07:55:17;;;;;;;13.15;6.05;;;;;;;20.25;56.95;98877.31;5094780;28;20063;-46
2023/03/21 07:57:43;;;;;;;12.35;4.70;;;;;;;20.91;59.23;98880.25;5094711;28;20018;-46
2023/03/21 08:00:09;;;;;;;8.98;4.88;;;;;;;21.92;57.57;98871.78;5059812;28;20115;-46
2023/03/21 08:02:35;;;;;;;20.95;5.82;;;;;;;22.04;55.60;98879.50;5093872;28;20016;-46
2023/03/21 08:05:02;;;;;;;13.73;4.72;;;;;;;22.05;55.31;98875.75;5094629;28;20031;-46
2023/03/21 08:07:28;;;;;;;11.23;6.05;;;;;;;21.79;57.35;98877.66;5094799;28;20032;-46
2023/03/21 08:09:54;;;;;;;15.25;4.88;;;;;;;21.86;58.14;98883.53;5094532;28;20378;-46
2023/03/21 08:12:19;;;;;;;17.20;5.53;;;;;;;21.82;57.92;98885.16;5094671;28;20055;-46
2023/03/21 08:14:45;;;;;;;9.57;4.72;;;;;;;21.79;59.86;98881.13;5094644;28;20024;-46
2023/03/21 08:17:11;;;;;;;12.20;6.25;;;;;;;22.04;59.43;98871.47;5076339;28;20020;-46
2023/03/21 08:19:36;;;;;;;13.27;6.43;;;;;;;22.32;57.10;98878.91;5094294;28;20039;-46
2023/03/21 08:22:05;;;;;;;17.95;6.70;;;;;;;21.97;53.30;98873.63;5075938;28;20027;-46
2023/03/21 08:24:32;;;;;;;14.27;6.88;;;;;;;21.62;53.54;98875.28;5094257;28;20024;-46
2023/03/21 08:27:00;;;;;;;21.90;6.95;;;;;;;21.20;56.75;98877.09;5076340;28;20021;-46
2023/03/21 08:29:25;;;;;;;17.63;7.28;;;;;;;21.31;59.42;98878.72;5075923;28;20024;-47
2023/03/21 08:31:51;;;;;;;14.35;6.40;;;;;;;21.64;59.91;98883.81;5093999;28;20173;-46
2023/03/21 08:34:18;;;;;;;14.77;6.00;;;;;;;22.00;59.72;98878.44;5059208;28;20138;-47
2023/03/21 08:36:44;;;;;;;16.80;7.10;;;;;;;22.27;60.13;98881.59;5093869;28;20027;-46
2023/03/21 08:39:10;;;;;;;16.80;6.43;;;;;;;22.67;59.44;98874.47;5093885;28;20099;-46
2023/03/21 08:41:36;;;;;;;19.58;6.65;;;;;;;23.09;59.04;98878.56;5058913;28;20024;-46
2023/03/21 08:44:04;;;;;;;11.75;6.78;;;;;;;23.50;56.94;98874.78;5075783;28;20026;-46
2023/03/21 08:46:30;;;;;;;15.68;7.30;;;;;;;23.85;56.64;98872.91;5059053;28;20502;-47
2023/03/21 08:48:56;;;;;;;11.13;6.22;;;;;;;24.23;55.75;98873.84;5075569;28;20031;-47
2023/03/21 08:51:22;;;;;;;14.70;6.10;;;;;;;24.60;55.15;98872.34;5093547;28;20489;-46
2023/03/21 08:53:50;;;;;;;23.23;7.35;;;;;;;24.69;54.14;98870.63;5093753;28;20078;-47
2023/03/21 08:56:16;;;;;;;16.67;7.32;;;;;;;24.94;52.85;98866.00;5093564;28;20032;-47
2023/03/21 08:58:43;;;;;;;10.57;5.03;;;;;;;25.37;52.37;98871.25;5093793;28;20024;-47
2023/03/21 09:01:10;;;;;;;17.45;5.85;;;;;;;25.36;52.81;98872.38;5093400;28;20024;-47
2023/03/21 09:03:39;;;;;;;10.80;5.18;;;;;;;25.23;52.12;98870.41;5093730;28;20028;-47
2023/03/21 09:06:05;;;;;;;14.20;5.75;;;;;;;25.66;53.93;98870.28;5075237;28;20024;-47
2023/03/21 09:08:30;;;;;;;9.40;5.45;;;;;;;26.28;51.44;98878.03;5093338;28;20507;-47
2023/03/21 09:10:56;;;;;;;21.23;6.55;;;;;;;26.88;51.17;98867.13;5075182;28;20032;-47
2023/03/21 09:13:23;;;;;;;19.20;6.80;;;;;;;27.52;49.92;98863.47;5093363;28;20244;-47
2023/03/21 09:15:48;;;;;;;22.00;5.60;;;;;;;27.75;49.29;98860.72;5093084;28;20024;-47
2023/03/21 09:18:16;;;;;;;21.05;6.13;;;;;;;27.99;48.99;98863.91;5075131;28;20035;-47
2023/03/21 09:20:45;;;;;;;11.07;5.20;;;;;;;27.65;48.50;98862.59;5092952;28;20051;-47
2023/03/21 09:23:14;;;;;;;9.10;4.90;;;;;;;27.40;49.25;98865.94;5093166;28;20020;-47
2023/03/21 09:25:41;;;;;;;12.07;4.90;;;;;;;27.31;47.40;98868.56;5074799;28;20119;-47
2023/03/21 09:28:07;;;;;;;14.40;5.13;;;;;;;27.15;49.25;98862.72;5093220;28;20075;-47
2023/03/21 09:30:35;;;;;;;9.77;4.15;;;;;;;27.37;50.18;98861.16;5092826;28;20560;-47
2023/03/21 09:33:11;;;;;;;15.45;4.70;;;;;;;27.59;48.67;98861.16;5093096;28;20393;-47
2023/03/21 09:35:37;;;;;;;16.85;5.63;;;;;;;27.88;49.61;98868.75;5092873;28;20477;-47
2023/03/21 09:38:04;;;;;;;6.22;4.13;;;;;;;28.28;48.88;98862.56;5092783;28;20024;-47
2023/03/21 09:40:51;;;;;;;6.10;3.58;;;;;;;28.78;46.41;98861.44;5092899;28;20476;-47
2023/03/21 09:43:23;;;;;;;8.57;3.80;;;;;;;29.45;46.78;98854.72;5074548;28;20031;-47
2023/03/21 09:46:07;;;;;;;6.43;3.42;;;;;;;29.53;45.96;98863.94;5074416;28;20032;-47
2023/03/21 09:48:56;;;;;;;7.78;3.67;;;;;;;29.87;45.84;98860.38;5092624;28;20036;-47
2023/03/21 09:51:25;;;;;;;9.80;4.32;;;;;;;30.37;47.52;98858.91;5092377;28;20036;-47
2023/03/21 09:53:52;;;;;;;4.75;3.38;;;;;;;30.65;46.75;98845.66;5092462;28;20493;-47
2023/03/21 09:56:18;;;;;;;3.85;3.30;;;;;;;30.55;46.96;98851.47;5092406;28;20031;-47
2023/03/21 09:58:53;;;;;;;13.30;4.63;;;;;;;30.10;43.18;98841.94;5092318;28;20036;-47
2023/03/21 10:01:34;;;;;;;10.02;4.00;;;;;;;28.82;45.50;98833.47;5092424;28;20020;-47
2023/03/21 10:04:10;;;;;;;6.10;4.03;;;;;;;28.00;44.52;98846.59;5092355;28;20508;-47
2023/03/21 10:06:40;;;;;;;8.50;3.83;;;;;;;28.28;46.63;98841.78;5074071;28;20024;-47
2023/03/21 10:09:15;;;;;;;17.45;5.55;;;;;;;28.26;47.79;98838.59;5092259;28;20032;-47
2023/03/21 10:11:49;;;;;;;11.40;4.10;;;;;;;27.92;46.99;98833.09;5074086;28;20374;-47
2023/03/21 10:14:35;;;;;;;14.63;4.57;;;;;;;28.26;47.24;98835.09;5092146;28;20074;-47
2023/03/21 10:17:10;;;;;;;23.98;8.20;;;;;;;29.04;40.63;98835.19;5092184;28;20062;-47
2023/03/21 10:19:35;;;;;;;7.80;3.92;;;;;;;29.32;42.95;98836.78;5092125;28;20060;-47
2023/03/21 10:22:01;;;;;;;16.30;4.32;;;;;;;29.54;44.73;98838.47;5073853;28;20062;-47
2023/03/21 10:24:28;;;;;;;10.50;4.22;;;;;;;29.61;45.26;98836.88;5092072;28;20024;-47
2023/03/21 10:26:55;;;;;;;14.13;5.05;;;;;;;29.84;46.16;98839.34;5073257;28;20023;-47
2023/03/21 10:29:27;;;;;;;6.07;3.65;;;;;;;30.60;43.67;98838.50;5092058;28;20028;-47
2023/03/21 10:31:54;;;;;;;14.05;4.35;;;;;;;31.09;43.99;98824.44;5091980;28;20055;-47
2023/03/21 10:34:42;;;;;;;8.18;4.00;;;;;;;31.23;43.66;98822.22;5074312;28;20031;-47
2023/03/21 10:37:11;;;;;;;14.60;4.40;;;;;;;31.62;42.88;98814.63;5073868;28;20118;-47
2023/03/21 10:39:40;;;;;;;8.60;3.55;;;;;;;31.75;42.30;98826.28;5091832;28;20489;-47
2023/03/21 10:42:13;;;;;;;10.20;4.10;;;;;;;31.68;43.46;98830.72;5073555;28;20035;-47
2023/03/21 10:44:39;;;;;;;9.70;4.33;;;;;;;31.87;43.46;98833.66;5091885;28;20028;-47
2023/03/21 10:47:08;;;;;;;8.98;3.22;;;;;;;32.23;40.92;98822.00;5092027;28;20382;-47
2023/03/21 10:49:37;;;;;;;16.85;4.30;;;;;;;32.45;40.15;98822.66;5091418;28;20397;-47
2023/03/21 10:52:10;;;;;;;17.00;4.05;;;;;;;31.92;40.32;98814.44;5073591;28;20064;-47
2023/03/21 10:54:36;;;;;;;8.98;3.63;;;;;;;32.17;43.00;98819.88;5073619;28;20032;-47
2023/03/21 10:57:12;;;;;;;8.35;3.22;;;;;;;32.32;38.30;98819.19;5073532;28;20024;-47
2023/03/21 10:59:52;;;;;;;11.52;3.33;;;;;;;32.41;38.75;98816.34;5091709;28;20081;-47
2023/03/21 11:02:31;;;;;;;23.92;4.80;;;;;;;32.20;37.81;98808.34;5074539;28;20024;-47
2023/03/21 11:05:28;;;;;;;4.57;3.05;;;;;;;31.76;40.04;98816.25;5073580;28;20067;-47
2023/03/21 11:08:05;;;;;;;5.35;3.10;;;;;;;31.06;37.08;98811.53;5067491;28;20118;-47
2023/03/21 11:10:37;;;;;;;17.70;3.90;;;;;;;30.36;41.48;98820.16;5091638;28;20030;-47
2023/03/21 11:13:32;;;;;;;6.43;3.58;;;;;;;30.19;41.86;98806.72;5073400;28;20024;-47
2023/03/21 11:16:07;;;;;;;17.30;4.10;;;;;;;30.37;41.68;98804.75;5091599;28;20042;-47
2023/03/21 11:18:39;;;;;;;10.43;2.40;;;;;;;30.75;39.90;98801.91;5091368;28;20036;-47
2023/03/21 11:21:09;;;;;;;11.82;3.10;;;;;;;30.61;42.11;98801.38;5091452;28;20081;-47
2023/03/21 11:23:40;;;;;;;8.77;3.00;;;;;;;30.36;40.86;98803.13;5073265;28;20523;-47
2023/03/21 11:26:10;;;;;;;11.75;3.33;;;;;;;30.34;42.53;98799.97;5057045;28;20444;-47
2023/03/21 11:28:39;;;;;;;13.13;3.45;;;;;;;30.26;41.88;98802.38;5091464;28;20028;-47
2023/03/21 11:31:08;;;;;;;13.75;3.10;;;;;;;30.49;40.92;98798.59;5091295;28;20056;-47
2023/03/21 11:33:44;;;;;;;14.52;2.97;;;;;;;30.51;38.54;98799.84;5091586;28;20024;-47
2023/03/21 11:36:22;;;;;;;11.68;3.17;;;;;;;30.39;36.48;98788.97;5091668;28;20039;-47
2023/03/21 11:38:51;;;;;;;11.43;3.30;;;;;;;30.51;40.59;98786.31;5092987;28;20020;-47
2023/03/21 11:41:27;;;;;;;7.88;2.50;;;;;;;30.71;37.68;98778.47;5094960;28;20028;-47
2023/03/21 11:43:53;;;;;;;4.65;2.20;;;;;;;30.90;40.82;98780.75;5076863;28;20520;-47
2023/03/21 11:46:28;;;;;;;9.73;2.80;;;;;;;30.85;38.36;98762.75;5095016;28;20027;-47
2023/03/21 11:48:55;;;;;;;6.82;3.05;;;;;;;30.60;41.12;98751.81;5094923;28;20032;-47